createdAt,value
2022-08-16T00:01:41.792Z,97678.03
2022-08-16T00:04:09.670Z,97678.50
2022-08-16T00:06:39.433Z,97676.47
2022-08-16T00:09:07.048Z,97672.16
2022-08-16T00:11:33.957Z,97679.94
2022-08-16T00:14:01.470Z,97681.97
2022-08-16T00:17:06.337Z,97686.25
2022-08-16T00:19:41.345Z,97688.38
2022-08-16T00:22:13.482Z,97689.19
2022-08-16T00:24:44.812Z,97694.81
2022-08-16T00:27:14.233Z,97696.16
2022-08-16T00:29:41.402Z,97704.63
2022-08-16T00:32:10.930Z,97701.63
2022-08-16T00:34:43.869Z,97697.63
2022-08-16T00:37:16.923Z,97705.69
2022-08-16T00:39:45.019Z,97706.66
2022-08-16T00:42:30.296Z,97709.84
2022-08-16T00:45:35.491Z,97711.16
2022-08-16T00:48:30.679Z,97718.13
2022-08-16T00:50:55.377Z,97713.88
2022-08-16T00:53:23.094Z,97715.06
2022-08-16T00:55:55.143Z,97708.63
2022-08-16T00:58:34.389Z,97706.66
2022-08-16T01:01:08.514Z,97710.28
2022-08-16T01:03:41.543Z,97706.75
2022-08-16T01:06:40.459Z,97702.56
2022-08-16T01:09:00.473Z,97709.34
2022-08-16T01:11:29.507Z,97697.19
2022-08-16T01:14:09.213Z,97702.81
2022-08-16T01:16:36.763Z,97694.31
2022-08-16T01:19:20.047Z,97700.09
2022-08-16T01:22:49.631Z,97699.34
2022-08-16T01:24:55.022Z,97698.34
2022-08-16T01:27:29.263Z,97694.72
2022-08-16T01:30:21.774Z,97697.34
2022-08-16T01:33:02.971Z,97695.78
2022-08-16T01:35:52.799Z,97699.41
2022-08-16T01:38:25.886Z,97699.72
2022-08-16T01:41:06.103Z,97689.16
2022-08-16T01:43:36.633Z,97691.69
2022-08-16T01:46:37.389Z,97695.41
2022-08-16T01:48:59.890Z,97695.84
2022-08-16T01:51:29.942Z,97690.84
2022-08-16T01:53:56.754Z,97695.91
2022-08-16T01:56:25.522Z,97692.91
2022-08-16T01:58:58.735Z,97700.56
2022-08-16T02:01:28.369Z,97690.97
2022-08-16T02:03:58.390Z,97691.53
2022-08-16T02:06:34.620Z,97694.44
2022-08-16T02:09:06.133Z,97696.41
2022-08-16T02:11:47.600Z,97687.88
2022-08-16T02:14:26.223Z,97690.47
2022-08-16T02:16:54.144Z,97687.38
2022-08-16T02:19:21.316Z,97682.91
2022-08-16T02:22:08.492Z,97675.19
2022-08-16T02:24:42.258Z,97675.91
2022-08-16T02:27:13.126Z,97670.59
2022-08-16T02:29:42.005Z,97667.53
2022-08-16T02:32:49.308Z,97677.63
2022-08-16T02:34:59.917Z,97679.28
2022-08-16T02:37:51.222Z,97676.47
2022-08-16T02:40:19.264Z,97670.66
2022-08-16T02:42:50.796Z,97677.19
2022-08-16T02:45:24.837Z,97676.56
2022-08-16T02:48:01.421Z,97675.66
2022-08-16T02:51:06.819Z,97681.13
2022-08-16T02:53:29.363Z,97669.91
2022-08-16T02:55:56.719Z,97680.03
2022-08-16T02:58:25.182Z,97674.81
2022-08-16T03:00:55.665Z,97671.47
2022-08-16T03:03:24.804Z,97670.44
2022-08-16T03:05:52.407Z,97669.06
2022-08-16T03:08:52.270Z,97671.47
2022-08-16T03:11:16.798Z,97669.81
2022-08-16T03:13:56.665Z,97675.94
2022-08-16T03:16:38.789Z,97669.06
2022-08-16T03:19:09.086Z,97678.50
2022-08-16T03:21:38.023Z,97671.72
2022-08-16T03:24:28.875Z,97671.47
2022-08-16T03:26:59.473Z,97671.50
2022-08-16T03:29:33.636Z,97678.72
2022-08-16T03:32:03.372Z,97671.50
2022-08-16T03:34:34.898Z,97671.22
2022-08-16T03:37:02.195Z,97668.47
2022-08-16T03:39:29.273Z,97670.75
2022-08-16T03:41:59.816Z,97674.47
2022-08-16T03:44:43.635Z,97672.34
2022-08-16T03:47:18.838Z,97675.97
2022-08-16T03:49:51.717Z,97681.53
2022-08-16T03:52:23.382Z,97683.47
2022-08-16T03:54:57.498Z,97685.16
2022-08-16T03:57:31.998Z,97683.38
2022-08-16T04:00:20.811Z,97688.28
2022-08-16T04:03:07.332Z,97686.63
2022-08-16T04:05:44.176Z,97690.91
2022-08-16T04:08:22.852Z,97682.53
2022-08-16T04:10:54.133Z,97696.06
2022-08-16T04:13:48.543Z,97691.06
2022-08-16T04:16:27.459Z,97689.81
2022-08-16T04:19:02.217Z,97694.25
2022-08-16T04:21:32.375Z,97704.81
2022-08-16T04:24:00.302Z,97700.44
2022-08-16T04:26:31.224Z,97705.34
2022-08-16T04:29:15.019Z,97702.59
2022-08-16T04:31:56.797Z,97708.25
2022-08-16T04:34:32.847Z,97708.78
2022-08-16T04:37:01.320Z,97709.06
2022-08-16T04:39:37.045Z,97704.25
2022-08-16T04:42:17.407Z,97705.59
2022-08-16T04:44:54.510Z,97700.63
2022-08-16T04:47:31.602Z,97709.81
2022-08-16T04:50:00.647Z,97706.72
2022-08-16T04:52:34.009Z,97714.03
2022-08-16T04:55:15.927Z,97709.09
2022-08-16T04:57:44.293Z,97718.41
2022-08-16T05:00:30.376Z,97715.75
2022-08-16T05:03:07.661Z,97719.88
2022-08-16T05:05:45.282Z,97714.41
2022-08-16T05:08:28.218Z,97721.59
2022-08-16T05:11:01.340Z,97725.78
2022-08-16T05:13:40.862Z,97720.78
2022-08-16T05:16:20.272Z,97727.19
2022-08-16T05:18:50.465Z,97720.75
2022-08-16T05:21:17.333Z,97725.44
2022-08-16T05:23:58.465Z,97723.59
2022-08-16T05:26:30.685Z,97721.88
2022-08-16T05:29:00.188Z,97732.84
2022-08-16T05:31:30.589Z,97728.72
2022-08-16T05:34:00.200Z,97734.13
2022-08-16T05:36:36.495Z,97741.09
2022-08-16T05:39:09.447Z,97734.84
2022-08-16T05:41:45.227Z,97733.00
2022-08-16T05:44:23.393Z,97739.97
2022-08-16T05:46:59.982Z,97741.72
2022-08-16T05:49:38.919Z,97747.84
2022-08-16T05:52:11.276Z,97745.19
2022-08-16T05:54:46.799Z,97746.84
2022-08-16T05:57:17.198Z,97755.13
2022-08-16T05:59:45.474Z,97756.50
2022-08-16T06:02:13.246Z,97750.72
2022-08-16T06:04:44.934Z,97757.03
2022-08-16T06:07:24.598Z,97759.81
2022-08-16T06:09:56.086Z,97757.25
2022-08-16T06:12:27.491Z,97758.56
2022-08-16T06:15:04.238Z,97759.00
2022-08-16T06:17:42.533Z,97758.94
2022-08-16T06:20:23.243Z,97752.72
2022-08-16T06:22:59.063Z,97754.84
2022-08-16T06:25:36.008Z,97753.63
2022-08-16T06:28:08.796Z,97762.28
2022-08-16T06:30:43.977Z,97763.38
2022-08-16T06:33:22.466Z,97756.69
2022-08-16T06:35:55.292Z,97752.63
2022-08-16T06:38:32.794Z,97749.88
2022-08-16T06:41:03.738Z,97749.28
2022-08-16T06:43:30.537Z,97748.97
2022-08-16T06:45:57.109Z,97746.88
2022-08-16T06:48:32.506Z,97746.25
2022-08-16T06:51:00.064Z,97750.25
2022-08-16T06:53:26.572Z,97754.47
2022-08-16T06:55:59.575Z,97747.84
2022-08-16T06:58:31.648Z,97757.00
2022-08-16T07:01:00.547Z,97752.22
2022-08-16T07:03:32.586Z,97751.25
2022-08-16T07:05:59.556Z,97757.09
2022-08-16T07:08:27.571Z,97761.25
2022-08-16T07:10:56.517Z,97758.75
2022-08-16T07:14:03.683Z,97760.09
2022-08-16T07:16:15.402Z,97766.09
2022-08-16T07:18:58.751Z,97756.25
2022-08-16T07:21:28.103Z,97757.06
2022-08-16T07:24:13.101Z,97756.34
2022-08-16T07:27:00.874Z,97755.16
2022-08-16T07:29:31.628Z,97753.28
2022-08-16T07:31:59.577Z,97758.94
2022-08-16T07:34:35.194Z,97764.41
2022-08-16T07:37:11.127Z,97763.03
2022-08-16T07:39:43.481Z,97756.78
2022-08-16T07:42:20.260Z,97757.75
2022-08-16T07:44:55.711Z,97758.19
2022-08-16T07:47:24.693Z,97758.63
2022-08-16T07:50:05.694Z,97768.88
2022-08-16T07:52:34.812Z,97761.88
2022-08-16T07:55:08.012Z,97760.63
2022-08-16T07:57:38.088Z,97767.16
2022-08-16T08:00:21.360Z,97767.75
2022-08-16T08:02:53.481Z,97775.00
2022-08-16T08:05:35.352Z,97776.22
2022-08-16T08:08:03.179Z,97773.63
2022-08-16T08:10:38.931Z,97777.91
2022-08-16T08:13:05.651Z,97776.59
2022-08-16T08:15:35.283Z,97785.59
2022-08-16T08:18:30.623Z,97781.84
2022-08-16T08:20:59.439Z,97781.66
2022-08-16T08:23:27.578Z,97785.53
2022-08-16T08:25:55.863Z,97790.97
2022-08-16T08:28:23.113Z,97792.53
2022-08-16T08:31:02.430Z,97792.91
2022-08-16T08:33:31.404Z,97789.28
2022-08-16T08:36:00.950Z,97787.19
2022-08-16T08:38:44.146Z,97785.91
2022-08-16T08:41:15.202Z,97787.25
2022-08-16T08:43:42.905Z,97786.72
2022-08-16T08:46:18.001Z,97794.63
2022-08-16T08:48:58.386Z,97783.22
2022-08-16T08:51:35.696Z,97785.78
2022-08-16T08:54:06.975Z,97792.28
2022-08-16T08:56:35.143Z,97789.28
2022-08-16T08:59:12.738Z,97789.38
2022-08-16T09:01:42.924Z,97790.50
2022-08-16T09:04:24.419Z,97780.69
2022-08-16T09:06:53.525Z,97786.53
2022-08-16T09:09:20.829Z,97785.38
2022-08-16T09:11:53.573Z,97782.38
2022-08-16T09:14:32.132Z,97785.47
2022-08-16T09:17:03.313Z,97783.69
2022-08-16T09:19:40.937Z,97782.56
2022-08-16T09:22:19.611Z,97786.53
2022-08-16T09:24:53.328Z,97784.94
2022-08-16T09:27:23.506Z,97790.56
2022-08-16T09:29:59.867Z,97783.44
2022-08-16T09:32:30.922Z,97783.88
2022-08-16T09:35:01.091Z,97787.28
2022-08-16T09:37:30.464Z,97797.22
2022-08-16T09:40:31.633Z,97789.38
2022-08-16T09:42:59.412Z,97793.13
2022-08-16T09:45:28.820Z,97797.47
2022-08-16T09:47:58.281Z,97797.50
2022-08-16T09:50:36.768Z,97795.63
2022-08-16T09:53:16.739Z,97796.47
2022-08-16T09:55:56.843Z,97796.06
2022-08-16T09:58:40.660Z,97790.47
2022-08-16T10:01:13.458Z,97789.09
2022-08-16T10:04:01.818Z,97782.66
2022-08-16T10:06:33.933Z,97789.28
2022-08-16T10:09:06.735Z,97782.41
2022-08-16T10:11:56.134Z,97789.47
2022-08-16T10:14:37.834Z,97786.78
2022-08-16T10:17:05.939Z,97793.50
2022-08-16T10:19:34.060Z,97792.25
2022-08-16T10:22:05.002Z,97782.88
2022-08-16T10:24:33.279Z,97779.69
2022-08-16T10:27:25.229Z,97782.44
2022-08-16T10:29:59.208Z,97786.03
2022-08-16T10:32:30.525Z,97788.06
2022-08-16T10:34:59.063Z,97785.59
2022-08-16T10:37:32.570Z,97782.50
2022-08-16T10:40:28.586Z,97788.13
2022-08-16T10:42:55.698Z,97785.28
2022-08-16T10:45:22.861Z,97786.97
2022-08-16T10:48:00.910Z,97786.97
2022-08-16T10:50:32.311Z,97790.25
2022-08-16T10:53:00.476Z,97790.00
2022-08-16T10:55:43.851Z,97793.69
2022-08-16T10:58:17.017Z,97792.97
2022-08-16T11:00:46.275Z,97798.81
2022-08-16T11:06:03.433Z,97797.31
2022-08-16T11:08:41.945Z,97793.63
2022-08-16T11:11:19.182Z,97797.63
2022-08-16T11:14:06.007Z,97802.78
2022-08-16T11:19:22.587Z,97798.03
2022-08-16T11:24:44.660Z,97803.84
2022-08-16T11:27:24.109Z,97795.72
2022-08-16T11:29:56.783Z,97795.56
2022-08-16T11:32:31.181Z,97782.78
2022-08-16T11:35:10.713Z,97788.50
2022-08-16T11:40:46.953Z,97793.72
2022-08-16T11:43:26.411Z,97792.63
2022-08-16T11:45:56.728Z,97800.19
2022-08-16T11:48:29.882Z,97798.25
2022-08-16T11:50:57.509Z,97793.75
2022-08-16T11:53:25.081Z,97797.97
2022-08-16T11:55:55.066Z,97796.91
2022-08-16T11:58:25.298Z,97798.78
2022-08-16T12:00:55.189Z,97795.41
2022-08-16T12:03:34.831Z,97791.94
2022-08-16T12:06:25.359Z,97803.81
2022-08-16T12:09:00.855Z,97798.41
2022-08-16T12:11:31.327Z,97793.59
2022-08-16T12:14:01.663Z,97793.34
2022-08-16T12:16:34.434Z,97801.38
2022-08-16T12:19:07.241Z,97794.66
2022-08-16T12:21:58.420Z,97793.78
2022-08-16T12:24:24.125Z,97789.53
2022-08-16T12:26:51.870Z,97791.63
2022-08-16T12:29:19.323Z,97792.09
2022-08-16T12:32:00.593Z,97780.94
2022-08-16T12:34:32.989Z,97786.78
2022-08-16T12:37:03.591Z,97784.75
2022-08-16T12:39:31.579Z,97792.25
2022-08-16T12:41:59.111Z,97791.34
2022-08-16T12:44:31.222Z,97796.31
2022-08-16T12:47:17.430Z,97793.91
2022-08-16T12:49:44.045Z,97798.59
2022-08-16T12:52:33.791Z,97796.06
2022-08-16T12:54:59.031Z,97792.19
2022-08-16T12:57:25.568Z,97786.75
2022-08-16T13:00:12.735Z,97788.91
2022-08-16T13:02:53.946Z,97789.25
2022-08-16T13:05:20.545Z,97781.03
2022-08-16T13:07:51.633Z,97785.31
2022-08-16T13:10:37.987Z,97788.53
2022-08-16T13:13:09.106Z,97783.94
2022-08-16T13:15:55.491Z,97780.63
2022-08-16T13:18:34.482Z,97793.59
2022-08-16T13:21:05.600Z,97783.13
2022-08-16T13:23:33.778Z,97792.63
2022-08-16T13:26:03.862Z,97792.06
2022-08-16T13:28:30.476Z,97785.66
2022-08-16T13:30:58.859Z,97791.88
2022-08-16T13:33:36.791Z,97788.13
2022-08-16T13:36:08.407Z,97791.63
2022-08-16T13:38:49.247Z,97789.03
2022-08-16T13:41:15.966Z,97799.25
2022-08-16T13:43:42.956Z,97801.59
2022-08-16T13:46:09.547Z,97796.03
2022-08-16T13:48:44.012Z,97791.69
2022-08-16T13:51:18.594Z,97793.63
2022-08-16T13:53:54.232Z,97793.75
2022-08-16T13:56:35.990Z,97795.47
2022-08-16T13:59:14.376Z,97790.16
2022-08-16T14:01:55.198Z,97790.63
2022-08-16T14:04:30.023Z,97793.66
2022-08-16T14:07:00.784Z,97789.91
2022-08-16T14:09:30.220Z,97790.47
2022-08-16T14:12:00.533Z,97788.38
2022-08-16T14:14:30.032Z,97788.75
2022-08-16T14:17:02.157Z,97793.34
2022-08-16T14:19:30.012Z,97789.34
2022-08-16T14:22:14.595Z,97788.63
2022-08-16T14:24:45.217Z,97788.03
2022-08-16T14:27:17.693Z,97791.34
2022-08-16T14:29:48.984Z,97783.22
2022-08-16T14:32:29.093Z,97786.13
2022-08-16T14:35:07.350Z,97794.94
2022-08-16T14:37:35.023Z,97797.03
2022-08-16T14:40:03.402Z,97793.75
2022-08-16T14:42:30.344Z,97791.03
2022-08-16T14:44:57.575Z,97793.50
2022-08-16T14:47:34.193Z,97792.22
2022-08-16T14:50:02.561Z,97788.63
2022-08-16T14:52:53.918Z,97787.31
2022-08-16T14:55:16.285Z,97791.91
2022-08-16T14:57:43.378Z,97789.81
2022-08-16T15:00:14.157Z,97789.94
2022-08-16T15:02:50.744Z,97787.25
2022-08-16T15:05:25.641Z,97790.16
2022-08-16T15:07:56.684Z,97784.19
2022-08-16T15:10:29.166Z,97774.31
2022-08-16T15:12:58.296Z,97774.59
2022-08-16T15:15:30.220Z,97771.00
2022-08-16T15:17:57.618Z,97776.53
2022-08-16T15:20:32.563Z,97769.59
2022-08-16T15:23:03.085Z,97772.69
2022-08-16T15:25:44.739Z,97771.72
2022-08-16T15:28:30.490Z,97770.75
2022-08-16T15:31:03.485Z,97774.59
2022-08-16T15:33:35.274Z,97775.38
2022-08-16T15:36:04.564Z,97774.09
2022-08-16T15:39:03.043Z,97769.50
2022-08-16T15:42:05.310Z,97776.06
2022-08-16T15:44:51.422Z,97771.41
2022-08-16T15:47:25.808Z,97781.50
2022-08-16T15:49:55.505Z,97773.16
2022-08-16T15:52:32.806Z,97778.81
2022-08-16T15:55:12.773Z,97787.25
2022-08-16T15:57:51.373Z,97786.88
2022-08-16T16:00:20.573Z,97787.69
2022-08-16T16:02:49.589Z,97781.47
2022-08-16T16:05:16.963Z,97782.47
2022-08-16T16:07:56.842Z,97779.81
2022-08-16T16:10:31.655Z,97789.63
2022-08-16T16:13:03.759Z,97789.75
2022-08-16T16:15:36.939Z,97797.53
2022-08-16T16:18:09.855Z,97789.88
2022-08-16T16:20:46.506Z,97789.66
2022-08-16T16:23:17.444Z,97788.00
2022-08-16T16:25:47.567Z,97790.13
2022-08-16T16:29:06.376Z,97791.19
2022-08-16T16:31:13.358Z,97789.03
2022-08-16T16:33:43.376Z,97786.69
2022-08-16T16:36:14.615Z,97787.00
2022-08-16T16:38:45.524Z,97796.66
2022-08-16T16:41:14.165Z,97790.50
2022-08-16T16:43:44.619Z,97797.66
2022-08-16T16:46:40.388Z,97795.16
2022-08-16T16:49:08.415Z,97792.69
2022-08-16T16:51:44.966Z,97799.97
2022-08-16T16:54:27.826Z,97787.75
2022-08-16T16:56:57.054Z,97792.19
2022-08-16T16:59:25.541Z,97793.47
2022-08-16T17:02:00.193Z,97782.91
2022-08-16T17:04:41.465Z,97788.75
2022-08-16T17:07:10.984Z,97786.06
2022-08-16T17:09:41.099Z,97788.16
2022-08-16T17:12:10.098Z,97784.25
2022-08-16T17:14:42.754Z,97785.75
2022-08-16T17:17:11.509Z,97787.88
2022-08-16T17:19:41.803Z,97789.97
2022-08-16T17:22:16.392Z,97789.41
2022-08-16T17:27:39.752Z,97795.47
2022-08-16T17:30:15.078Z,97791.81
2022-08-16T17:32:54.363Z,97792.25
2022-08-16T17:35:39.151Z,97787.13
2022-08-16T17:38:09.600Z,97790.06
2022-08-16T17:39:28.284Z,97789.16
2022-08-16T17:40:59.233Z,97794.03
2022-08-16T17:43:44.487Z,97786.09
2022-08-16T17:46:51.082Z,97786.97
2022-08-16T17:49:01.237Z,97794.03
2022-08-16T17:51:28.540Z,97792.59
2022-08-16T17:53:55.567Z,97790.59
2022-08-16T17:56:22.705Z,97793.72
2022-08-16T17:58:49.550Z,97787.63
2022-08-16T18:01:18.136Z,97791.44
2022-08-16T18:04:06.996Z,97794.44
2022-08-16T18:06:31.076Z,97799.97
2022-08-16T18:09:03.587Z,97802.22
2022-08-16T18:11:33.704Z,97794.78
2022-08-16T18:14:00.447Z,97796.72
2022-08-16T18:16:27.045Z,97799.91
2022-08-16T18:18:53.656Z,97806.63
2022-08-16T18:21:38.455Z,97815.00
2022-08-16T18:24:05.413Z,97817.13
2022-08-16T18:26:31.977Z,97815.97
2022-08-16T18:28:58.574Z,97820.16
2022-08-16T18:31:25.338Z,97814.84
2022-08-16T18:33:55.753Z,97821.16
2022-08-16T18:36:25.277Z,97814.94
2022-08-16T18:38:53.824Z,97834.03
2022-08-16T18:41:23.715Z,97821.44
2022-08-16T18:43:59.217Z,97829.78
2022-08-16T18:46:43.169Z,97837.47
2022-08-16T18:49:11.498Z,97841.19
2022-08-16T18:51:42.579Z,97835.00
2022-08-16T18:54:11.958Z,97842.44
2022-08-16T18:56:57.110Z,97850.28
2022-08-16T18:59:30.383Z,97846.69
2022-08-16T19:02:04.472Z,97847.09
2022-08-16T19:04:56.956Z,97845.81
2022-08-16T19:07:30.971Z,97851.34
2022-08-16T19:10:02.060Z,97854.63
2022-08-16T19:12:38.343Z,97850.41
2022-08-16T19:15:15.934Z,97848.88
2022-08-16T19:17:44.156Z,97850.47
2022-08-16T19:20:13.467Z,97853.75
2022-08-16T19:25:48.552Z,97853.78
2022-08-16T19:28:49.597Z,97857.13
2022-08-16T19:31:30.432Z,97868.31
2022-08-16T19:33:58.029Z,97857.94
2022-08-16T19:36:37.786Z,97863.22
2022-08-16T19:39:15.095Z,97872.69
2022-08-16T19:41:46.297Z,97876.75
2022-08-16T19:44:19.836Z,97877.38
2022-08-16T19:46:48.579Z,97875.81
2022-08-16T19:49:16.559Z,97880.53
2022-08-16T19:51:47.803Z,97881.75
2022-08-16T19:54:15.378Z,97888.22
2022-08-16T19:56:41.931Z,97881.25
2022-08-16T19:59:40.358Z,97888.75
2022-08-16T20:01:55.457Z,97900.19
2022-08-16T20:04:23.767Z,97901.78
2022-08-16T20:06:54.683Z,97902.59
2022-08-16T20:09:23.382Z,97900.03
2022-08-16T20:11:52.661Z,97900.28
2022-08-16T20:14:25.370Z,97906.53
2022-08-16T20:16:59.363Z,97915.56
2022-08-16T20:19:33.436Z,97909.63
2022-08-16T20:22:52.370Z,97914.59
2022-08-16T20:25:31.581Z,97915.88
2022-08-16T20:28:00.809Z,97914.38
2022-08-16T20:30:28.388Z,97917.75
2022-08-16T20:32:55.568Z,97918.97
2022-08-16T20:35:26.208Z,97916.72
2022-08-16T20:37:53.796Z,97919.59
2022-08-16T20:40:34.228Z,97924.50
2022-08-16T20:43:13.622Z,97915.13
2022-08-16T20:45:43.627Z,97916.69
2022-08-16T20:48:11.169Z,97918.06
2022-08-16T20:50:38.647Z,97919.94
2022-08-16T20:53:06.429Z,97929.28
2022-08-16T20:55:40.296Z,97931.28
2022-08-16T20:58:07.278Z,97936.81
2022-08-16T21:00:33.983Z,97940.16
2022-08-16T21:03:05.467Z,97943.56
2022-08-16T21:05:32.115Z,97951.44
2022-08-16T21:07:59.897Z,97946.03
2022-08-16T21:10:27.030Z,97949.00
2022-08-16T21:13:03.477Z,97951.69
2022-08-16T21:15:32.825Z,97949.88
2022-08-16T21:18:00.980Z,97955.09
2022-08-16T21:20:29.168Z,97956.81
2022-08-16T21:23:00.910Z,97962.34
2022-08-16T21:25:29.096Z,97971.53
2022-08-16T21:28:40.193Z,97965.38
2022-08-16T21:30:44.648Z,97956.88
2022-08-16T21:33:16.780Z,97963.56
2022-08-16T21:35:47.514Z,97958.59
2022-08-16T21:38:29.068Z,97960.78
2022-08-16T21:40:59.291Z,97967.97
2022-08-16T21:43:28.639Z,97963.13
2022-08-16T21:45:55.994Z,97962.19
2022-08-16T21:48:35.836Z,97953.69
2022-08-16T21:51:09.943Z,97958.66
2022-08-16T21:53:37.840Z,97956.50
2022-08-16T21:56:06.344Z,97957.34
2022-08-16T21:58:33.264Z,97946.19
2022-08-16T22:01:02.345Z,97955.50
2022-08-16T22:03:32.923Z,97951.19
2022-08-16T22:06:11.986Z,97945.53
2022-08-16T22:08:50.347Z,97950.69
2022-08-16T22:11:23.840Z,97946.88
2022-08-16T22:13:57.997Z,97951.88
2022-08-16T22:16:31.325Z,97958.84
2022-08-16T22:18:58.081Z,97957.84
2022-08-16T22:21:25.072Z,97947.38
2022-08-16T22:23:56.650Z,97950.22
2022-08-16T22:26:32.199Z,97949.19
2022-08-16T22:29:06.639Z,97951.84
2022-08-16T22:31:34.438Z,97958.00
2022-08-16T22:34:02.348Z,97950.69
2022-08-16T22:36:31.023Z,97956.16
2022-08-16T22:39:00.291Z,97961.00
2022-08-16T22:41:30.759Z,97952.03
2022-08-16T22:43:58.493Z,97960.84
2022-08-16T22:46:25.114Z,97966.00
2022-08-16T22:48:51.725Z,97966.69
2022-08-16T22:51:21.973Z,97969.00
2022-08-16T22:53:49.653Z,97975.50
2022-08-16T22:56:17.364Z,97973.47
2022-08-16T22:58:45.462Z,97968.16
2022-08-16T23:01:15.082Z,97965.47
2022-08-16T23:03:42.541Z,97962.16
2022-08-16T23:06:12.216Z,97959.66
2022-08-16T23:08:41.442Z,97957.31
2022-08-16T23:11:19.940Z,97952.16
2022-08-16T23:13:52.976Z,97949.69
2022-08-16T23:16:32.624Z,97951.00
2022-08-16T23:19:06.441Z,97954.84
2022-08-16T23:21:35.296Z,97955.50
2022-08-16T23:24:02.528Z,97951.50
2022-08-16T23:26:44.813Z,97946.84
2022-08-16T23:29:24.501Z,97949.16
2022-08-16T23:32:10.719Z,97948.16
2022-08-16T23:34:37.378Z,97941.31
2022-08-16T23:37:04.934Z,97937.47
2022-08-16T23:39:31.499Z,97943.13
2022-08-16T23:41:58.731Z,97945.78
2022-08-16T23:44:55.267Z,97946.44
2022-08-16T23:47:11.848Z,97945.44
2022-08-16T23:50:01.988Z,97934.63
2022-08-16T23:52:53.176Z,97930.75
2022-08-16T23:55:12.618Z,97928.72
2022-08-16T23:57:39.118Z,97930.06
